< < Back
Terminal Aerodrome Forecast


Current Version              Previous Versions:   1  2  3  4  5  6  7  8  9  

Terminal Aerodrome Forecast

587
FTUS42 KTAE 270520
TAFTLH
TAF
KTLH 270520Z 2706/2806 00000KT P6SM FEW050 SCT250
     FM271500 21006KT P6SM SCT050 SCT250=



Latest METAR

333
SAUS80 KWBC 271500 RRB
MTRTLH
METAR KTLH 271453Z 19007KT 10SM SCT045 SCT250 31/24 A3009 RMK AO2 SLP188
T03110239 50006


USA.gov is the U.S. government's official web portal to all federal, state and local government web resources and services.